sensor_id;sensor_type;location;lat;lon;timestamp;P1;durP1;ratioP1;P2;durP2;ratioP2
6519;SDS011;3293;51.690;5.982;2024-02-28T00:01:15;58.13;;;20.73;;
6519;SDS011;3293;51.690;5.982;2024-02-28T00:06:16;67.37;;;22.93;;
6519;SDS011;3293;51.690;5.982;2024-02-28T00:11:16;56.43;;;21.67;;
6519;SDS011;3293;51.690;5.982;2024-02-28T00:16:16;40.70;;;21.10;;
6519;SDS011;3293;51.690;5.982;2024-02-28T00:21:16;48.33;;;20.53;;
6519;SDS011;3293;51.690;5.982;2024-02-28T00:26:16;41.97;;;21.03;;
6519;SDS011;3293;51.690;5.982;2024-02-28T00:31:16;46.87;;;22.50;;
6519;SDS011;3293;51.690;5.982;2024-02-28T00:36:15;42.97;;;21.97;;
6519;SDS011;3293;51.690;5.982;2024-02-28T00:41:15;49.90;;;23.53;;
6519;SDS011;3293;51.690;5.982;2024-02-28T00:46:15;45.93;;;21.57;;
6519;SDS011;3293;51.690;5.982;2024-02-28T00:51:15;47.63;;;22.30;;
6519;SDS011;3293;51.690;5.982;2024-02-28T00:56:15;48.37;;;21.10;;
6519;SDS011;3293;51.690;5.982;2024-02-28T01:01:15;39.67;;;20.20;;
6519;SDS011;3293;51.690;5.982;2024-02-28T01:06:15;37.53;;;21.13;;
6519;SDS011;3293;51.690;5.982;2024-02-28T01:11:15;35.03;;;20.33;;
6519;SDS011;3293;51.690;5.982;2024-02-28T01:16:15;56.47;;;23.73;;
6519;SDS011;3293;51.690;5.982;2024-02-28T01:21:16;41.40;;;20.47;;
6519;SDS011;3293;51.690;5.982;2024-02-28T01:26:15;50.13;;;22.60;;
6519;SDS011;3293;51.690;5.982;2024-02-28T01:31:15;43.60;;;22.33;;
6519;SDS011;3293;51.690;5.982;2024-02-28T01:36:15;47.57;;;21.83;;
6519;SDS011;3293;51.690;5.982;2024-02-28T01:41:15;40.30;;;22.20;;
6519;SDS011;3293;51.690;5.982;2024-02-28T01:46:25;41.63;;;23.10;;
6519;SDS011;3293;51.690;5.982;2024-02-28T01:51:26;66.67;;;23.93;;
6519;SDS011;3293;51.690;5.982;2024-02-28T01:56:26;66.07;;;24.20;;
6519;SDS011;3293;51.690;5.982;2024-02-28T02:01:27;77.40;;;25.30;;
6519;SDS011;3293;51.690;5.982;2024-02-28T02:06:27;69.17;;;26.73;;
6519;SDS011;3293;51.690;5.982;2024-02-28T02:11:27;54.83;;;24.23;;
6519;SDS011;3293;51.690;5.982;2024-02-28T02:16:28;50.23;;;22.30;;
6519;SDS011;3293;51.690;5.982;2024-02-28T02:21:34;50.30;;;23.03;;
6519;SDS011;3293;51.690;5.982;2024-02-28T02:26:37;74.43;;;22.77;;
6519;SDS011;3293;51.690;5.982;2024-02-28T02:31:37;66.53;;;25.20;;
6519;SDS011;3293;51.690;5.982;2024-02-28T02:36:37;61.33;;;24.07;;
6519;SDS011;3293;51.690;5.982;2024-02-28T02:41:37;49.43;;;23.80;;
6519;SDS011;3293;51.690;5.982;2024-02-28T02:46:37;41.80;;;24.37;;
6519;SDS011;3293;51.690;5.982;2024-02-28T02:51:38;61.23;;;25.93;;
6519;SDS011;3293;51.690;5.982;2024-02-28T02:56:41;53.83;;;23.47;;
6519;SDS011;3293;51.690;5.982;2024-02-28T03:01:42;39.90;;;21.63;;
6519;SDS011;3293;51.690;5.982;2024-02-28T03:06:41;79.37;;;26.57;;
6519;SDS011;3293;51.690;5.982;2024-02-28T03:11:41;38.47;;;22.00;;
6519;SDS011;3293;51.690;5.982;2024-02-28T03:16:42;40.70;;;22.17;;
6519;SDS011;3293;51.690;5.982;2024-02-28T03:21:42;41.93;;;22.07;;
6519;SDS011;3293;51.690;5.982;2024-02-28T03:26:42;99.73;;;27.57;;
6519;SDS011;3293;51.690;5.982;2024-02-28T03:31:42;65.77;;;24.47;;
6519;SDS011;3293;51.690;5.982;2024-02-28T03:36:42;56.33;;;23.47;;
6519;SDS011;3293;51.690;5.982;2024-02-28T03:41:42;53.97;;;24.57;;
6519;SDS011;3293;51.690;5.982;2024-02-28T03:46:42;41.40;;;23.57;;
6519;SDS011;3293;51.690;5.982;2024-02-28T03:51:42;64.40;;;26.70;;
6519;SDS011;3293;51.690;5.982;2024-02-28T03:56:42;39.17;;;23.57;;
6519;SDS011;3293;51.690;5.982;2024-02-28T04:01:42;47.73;;;25.17;;
6519;SDS011;3293;51.690;5.982;2024-02-28T04:06:42;60.20;;;27.67;;
6519;SDS011;3293;51.690;5.982;2024-02-28T04:11:41;61.60;;;26.80;;
6519;SDS011;3293;51.690;5.982;2024-02-28T04:16:42;43.17;;;25.00;;
6519;SDS011;3293;51.690;5.982;2024-02-28T04:21:43;85.03;;;27.83;;
6519;SDS011;3293;51.690;5.982;2024-02-28T04:26:43;49.20;;;26.20;;
6519;SDS011;3293;51.690;5.982;2024-02-28T04:31:43;41.73;;;24.03;;
6519;SDS011;3293;51.690;5.982;2024-02-28T04:36:42;55.27;;;27.00;;
6519;SDS011;3293;51.690;5.982;2024-02-28T04:41:42;44.57;;;25.57;;
6519;SDS011;3293;51.690;5.982;2024-02-28T04:46:42;44.40;;;25.40;;
6519;SDS011;3293;51.690;5.982;2024-02-28T04:51:42;49.13;;;26.93;;
6519;SDS011;3293;51.690;5.982;2024-02-28T04:56:42;43.73;;;25.80;;
6519;SDS011;3293;51.690;5.982;2024-02-28T05:01:42;46.17;;;26.40;;
6519;SDS011;3293;51.690;5.982;2024-02-28T05:06:42;49.63;;;26.67;;
6519;SDS011;3293;51.690;5.982;2024-02-28T05:11:43;47.50;;;25.90;;
6519;SDS011;3293;51.690;5.982;2024-02-28T05:16:43;46.93;;;26.40;;
6519;SDS011;3293;51.690;5.982;2024-02-28T05:21:43;52.00;;;26.97;;
6519;SDS011;3293;51.690;5.982;2024-02-28T05:26:43;43.80;;;27.67;;
6519;SDS011;3293;51.690;5.982;2024-02-28T05:31:43;56.40;;;29.80;;
6519;SDS011;3293;51.690;5.982;2024-02-28T05:36:43;66.33;;;30.83;;
6519;SDS011;3293;51.690;5.982;2024-02-28T05:41:43;56.43;;;29.53;;
6519;SDS011;3293;51.690;5.982;2024-02-28T05:46:43;53.47;;;29.13;;
6519;SDS011;3293;51.690;5.982;2024-02-28T05:51:43;57.70;;;31.03;;
6519;SDS011;3293;51.690;5.982;2024-02-28T05:56:43;52.17;;;29.67;;
6519;SDS011;3293;51.690;5.982;2024-02-28T06:01:43;54.97;;;30.00;;
6519;SDS011;3293;51.690;5.982;2024-02-28T06:06:43;53.37;;;29.70;;
6519;SDS011;3293;51.690;5.982;2024-02-28T06:11:43;65.70;;;31.90;;
6519;SDS011;3293;51.690;5.982;2024-02-28T06:16:46;60.57;;;32.37;;
6519;SDS011;3293;51.690;5.982;2024-02-28T06:21:46;63.23;;;33.53;;
6519;SDS011;3293;51.690;5.982;2024-02-28T06:26:46;82.67;;;33.97;;
6519;SDS011;3293;51.690;5.982;2024-02-28T06:31:49;73.83;;;35.20;;
6519;SDS011;3293;51.690;5.982;2024-02-28T06:36:51;70.77;;;35.47;;
6519;SDS011;3293;51.690;5.982;2024-02-28T06:41:50;73.97;;;35.80;;
6519;SDS011;3293;51.690;5.982;2024-02-28T06:46:51;72.10;;;34.37;;
6519;SDS011;3293;51.690;5.982;2024-02-28T06:51:50;97.97;;;36.57;;
6519;SDS011;3293;51.690;5.982;2024-02-28T06:56:50;73.63;;;32.60;;
6519;SDS011;3293;51.690;5.982;2024-02-28T07:01:50;89.43;;;36.10;;
6519;SDS011;3293;51.690;5.982;2024-02-28T07:06:50;71.77;;;34.40;;
6519;SDS011;3293;51.690;5.982;2024-02-28T07:11:50;82.23;;;36.30;;
6519;SDS011;3293;51.690;5.982;2024-02-28T07:16:50;70.70;;;34.67;;
6519;SDS011;3293;51.690;5.982;2024-02-28T07:21:51;75.33;;;35.00;;
6519;SDS011;3293;51.690;5.982;2024-02-28T07:26:51;71.73;;;34.23;;
6519;SDS011;3293;51.690;5.982;2024-02-28T07:31:51;67.47;;;32.77;;
6519;SDS011;3293;51.690;5.982;2024-02-28T07:36:51;61.93;;;32.47;;
6519;SDS011;3293;51.690;5.982;2024-02-28T07:41:51;64.90;;;31.90;;
6519;SDS011;3293;51.690;5.982;2024-02-28T07:46:51;63.93;;;31.43;;
6519;SDS011;3293;51.690;5.982;2024-02-28T07:51:51;64.47;;;31.10;;
6519;SDS011;3293;51.690;5.982;2024-02-28T07:56:51;60.53;;;31.13;;
6519;SDS011;3293;51.690;5.982;2024-02-28T08:01:51;62.43;;;31.57;;
6519;SDS011;3293;51.690;5.982;2024-02-28T08:06:51;59.63;;;30.40;;
6519;SDS011;3293;51.690;5.982;2024-02-28T08:11:51;55.93;;;30.17;;
6519;SDS011;3293;51.690;5.982;2024-02-28T08:16:51;61.10;;;31.47;;
6519;SDS011;3293;51.690;5.982;2024-02-28T08:21:51;58.23;;;30.30;;
6519;SDS011;3293;51.690;5.982;2024-02-28T08:26:51;57.03;;;29.43;;
6519;SDS011;3293;51.690;5.982;2024-02-28T08:31:51;57.60;;;30.87;;
6519;SDS011;3293;51.690;5.982;2024-02-28T08:36:51;54.10;;;28.80;;
6519;SDS011;3293;51.690;5.982;2024-02-28T08:41:51;54.50;;;31.37;;
6519;SDS011;3293;51.690;5.982;2024-02-28T08:46:51;48.57;;;27.60;;
6519;SDS011;3293;51.690;5.982;2024-02-28T08:51:51;54.97;;;29.23;;
6519;SDS011;3293;51.690;5.982;2024-02-28T08:56:51;53.27;;;27.73;;
6519;SDS011;3293;51.690;5.982;2024-02-28T09:01:50;46.80;;;28.43;;
6519;SDS011;3293;51.690;5.982;2024-02-28T09:06:50;51.50;;;29.20;;
6519;SDS011;3293;51.690;5.982;2024-02-28T09:11:52;47.83;;;27.13;;
6519;SDS011;3293;51.690;5.982;2024-02-28T09:16:52;41.97;;;24.40;;
6519;SDS011;3293;51.690;5.982;2024-02-28T09:21:52;45.37;;;25.90;;
6519;SDS011;3293;51.690;5.982;2024-02-28T09:26:52;43.63;;;23.80;;
6519;SDS011;3293;51.690;5.982;2024-02-28T09:31:52;45.07;;;24.77;;
6519;SDS011;3293;51.690;5.982;2024-02-28T09:36:52;40.90;;;23.50;;
6519;SDS011;3293;51.690;5.982;2024-02-28T09:41:52;39.90;;;23.83;;
6519;SDS011;3293;51.690;5.982;2024-02-28T09:46:52;38.43;;;23.57;;
6519;SDS011;3293;51.690;5.982;2024-02-28T09:51:52;37.23;;;23.00;;
6519;SDS011;3293;51.690;5.982;2024-02-28T09:56:52;36.37;;;21.70;;
6519;SDS011;3293;51.690;5.982;2024-02-28T10:01:53;30.83;;;20.53;;
6519;SDS011;3293;51.690;5.982;2024-02-28T10:06:56;33.57;;;20.53;;
6519;SDS011;3293;51.690;5.982;2024-02-28T10:11:56;27.80;;;19.63;;
6519;SDS011;3293;51.690;5.982;2024-02-28T10:16:56;32.00;;;21.03;;
6519;SDS011;3293;51.690;5.982;2024-02-28T10:21:56;45.80;;;23.03;;
6519;SDS011;3293;51.690;5.982;2024-02-28T10:26:56;28.23;;;19.57;;
6519;SDS011;3293;51.690;5.982;2024-02-28T10:32:00;30.73;;;20.27;;
6519;SDS011;3293;51.690;5.982;2024-02-28T10:37:02;32.37;;;20.13;;
6519;SDS011;3293;51.690;5.982;2024-02-28T10:42:04;32.43;;;20.37;;
6519;SDS011;3293;51.690;5.982;2024-02-28T10:47:05;37.63;;;22.07;;
6519;SDS011;3293;51.690;5.982;2024-02-28T10:52:07;30.40;;;19.27;;
6519;SDS011;3293;51.690;5.982;2024-02-28T10:57:11;34.00;;;21.23;;
6519;SDS011;3293;51.690;5.982;2024-02-28T11:02:12;31.53;;;20.90;;
6519;SDS011;3293;51.690;5.982;2024-02-28T11:07:19;29.00;;;19.63;;
6519;SDS011;3293;51.690;5.982;2024-02-28T11:12:26;33.97;;;19.63;;
6519;SDS011;3293;51.690;5.982;2024-02-28T11:17:28;26.63;;;18.20;;
6519;SDS011;3293;51.690;5.982;2024-02-28T11:22:29;31.30;;;18.63;;
6519;SDS011;3293;51.690;5.982;2024-02-28T11:27:29;28.53;;;18.63;;
6519;SDS011;3293;51.690;5.982;2024-02-28T11:32:29;31.40;;;18.57;;
6519;SDS011;3293;51.690;5.982;2024-02-28T11:37:31;23.23;;;17.67;;
6519;SDS011;3293;51.690;5.982;2024-02-28T11:42:31;28.77;;;18.57;;
6519;SDS011;3293;51.690;5.982;2024-02-28T11:47:34;27.53;;;19.53;;
6519;SDS011;3293;51.690;5.982;2024-02-28T11:52:35;25.33;;;17.80;;
6519;SDS011;3293;51.690;5.982;2024-02-28T11:57:36;28.00;;;18.53;;
6519;SDS011;3293;51.690;5.982;2024-02-28T12:02:36;26.97;;;19.03;;
6519;SDS011;3293;51.690;5.982;2024-02-28T12:07:36;29.23;;;18.67;;
6519;SDS011;3293;51.690;5.982;2024-02-28T12:12:38;29.13;;;18.20;;
6519;SDS011;3293;51.690;5.982;2024-02-28T12:17:39;28.30;;;19.00;;
6519;SDS011;3293;51.690;5.982;2024-02-28T12:22:39;35.00;;;20.87;;
6519;SDS011;3293;51.690;5.982;2024-02-28T12:27:38;36.07;;;21.23;;
6519;SDS011;3293;51.690;5.982;2024-02-28T12:32:38;38.37;;;23.13;;
6519;SDS011;3293;51.690;5.982;2024-02-28T12:37:38;35.47;;;21.23;;
6519;SDS011;3293;51.690;5.982;2024-02-28T12:42:38;34.07;;;23.03;;
6519;SDS011;3293;51.690;5.982;2024-02-28T12:47:38;39.17;;;24.27;;
6519;SDS011;3293;51.690;5.982;2024-02-28T12:52:38;40.30;;;24.33;;
6519;SDS011;3293;51.690;5.982;2024-02-28T12:57:38;40.43;;;23.77;;
6519;SDS011;3293;51.690;5.982;2024-02-28T13:02:38;35.77;;;23.70;;
6519;SDS011;3293;51.690;5.982;2024-02-28T13:07:39;33.07;;;20.90;;
6519;SDS011;3293;51.690;5.982;2024-02-28T13:12:39;34.70;;;22.13;;
6519;SDS011;3293;51.690;5.982;2024-02-28T13:17:39;30.63;;;19.17;;
6519;SDS011;3293;51.690;5.982;2024-02-28T13:22:40;36.03;;;19.90;;
6519;SDS011;3293;51.690;5.982;2024-02-28T13:27:40;33.00;;;20.10;;
6519;SDS011;3293;51.690;5.982;2024-02-28T13:32:40;36.10;;;20.33;;
6519;SDS011;3293;51.690;5.982;2024-02-28T13:37:40;34.67;;;20.20;;
6519;SDS011;3293;51.690;5.982;2024-02-28T13:42:40;28.43;;;18.30;;
6519;SDS011;3293;51.690;5.982;2024-02-28T13:47:40;30.07;;;17.90;;
6519;SDS011;3293;51.690;5.982;2024-02-28T13:52:40;32.87;;;18.17;;
6519;SDS011;3293;51.690;5.982;2024-02-28T13:57:40;29.10;;;18.23;;
6519;SDS011;3293;51.690;5.982;2024-02-28T14:02:40;32.33;;;19.23;;
6519;SDS011;3293;51.690;5.982;2024-02-28T14:07:40;30.17;;;17.73;;
6519;SDS011;3293;51.690;5.982;2024-02-28T14:12:40;29.43;;;16.80;;
6519;SDS011;3293;51.690;5.982;2024-02-28T14:17:40;31.40;;;18.63;;
6519;SDS011;3293;51.690;5.982;2024-02-28T14:22:40;26.07;;;17.00;;
6519;SDS011;3293;51.690;5.982;2024-02-28T14:27:46;28.60;;;17.23;;
6519;SDS011;3293;51.690;5.982;2024-02-28T14:32:46;25.30;;;16.33;;
6519;SDS011;3293;51.690;5.982;2024-02-28T14:37:48;23.77;;;15.33;;
6519;SDS011;3293;51.690;5.982;2024-02-28T14:42:48;25.43;;;15.03;;
6519;SDS011;3293;51.690;5.982;2024-02-28T14:47:47;25.10;;;16.23;;
6519;SDS011;3293;51.690;5.982;2024-02-28T14:52:47;26.57;;;15.83;;
6519;SDS011;3293;51.690;5.982;2024-02-28T14:57:47;23.83;;;15.33;;
6519;SDS011;3293;51.690;5.982;2024-02-28T15:02:47;22.10;;;14.17;;
6519;SDS011;3293;51.690;5.982;2024-02-28T15:07:47;27.03;;;15.67;;
6519;SDS011;3293;51.690;5.982;2024-02-28T15:12:48;23.57;;;14.30;;
6519;SDS011;3293;51.690;5.982;2024-02-28T15:17:48;21.10;;;13.40;;
6519;SDS011;3293;51.690;5.982;2024-02-28T15:22:47;24.70;;;13.97;;
6519;SDS011;3293;51.690;5.982;2024-02-28T15:27:47;26.47;;;14.07;;
6519;SDS011;3293;51.690;5.982;2024-02-28T15:32:47;19.20;;;12.40;;
6519;SDS011;3293;51.690;5.982;2024-02-28T15:37:47;21.60;;;13.03;;
6519;SDS011;3293;51.690;5.982;2024-02-28T15:42:47;20.13;;;12.93;;
6519;SDS011;3293;51.690;5.982;2024-02-28T15:47:47;18.33;;;12.07;;
6519;SDS011;3293;51.690;5.982;2024-02-28T15:52:47;19.43;;;12.83;;
6519;SDS011;3293;51.690;5.982;2024-02-28T15:57:47;20.57;;;12.13;;
6519;SDS011;3293;51.690;5.982;2024-02-28T16:02:47;17.37;;;11.33;;
6519;SDS011;3293;51.690;5.982;2024-02-28T16:07:47;18.60;;;11.30;;
6519;SDS011;3293;51.690;5.982;2024-02-28T16:12:47;18.07;;;10.37;;
6519;SDS011;3293;51.690;5.982;2024-02-28T16:17:47;20.93;;;11.10;;
6519;SDS011;3293;51.690;5.982;2024-02-28T16:22:47;18.80;;;11.60;;
6519;SDS011;3293;51.690;5.982;2024-02-28T16:27:47;16.73;;;10.93;;
6519;SDS011;3293;51.690;5.982;2024-02-28T16:32:47;16.03;;;10.50;;
6519;SDS011;3293;51.690;5.982;2024-02-28T16:37:47;16.10;;;10.47;;
6519;SDS011;3293;51.690;5.982;2024-02-28T16:42:48;13.20;;;8.93;;
6519;SDS011;3293;51.690;5.982;2024-02-28T16:47:48;13.33;;;8.73;;
6519;SDS011;3293;51.690;5.982;2024-02-28T16:52:48;14.83;;;8.60;;
6519;SDS011;3293;51.690;5.982;2024-02-28T16:57:48;13.63;;;8.47;;
6519;SDS011;3293;51.690;5.982;2024-02-28T17:02:48;14.07;;;8.83;;
6519;SDS011;3293;51.690;5.982;2024-02-28T17:07:48;17.40;;;9.53;;
6519;SDS011;3293;51.690;5.982;2024-02-28T17:12:47;16.57;;;10.23;;
6519;SDS011;3293;51.690;5.982;2024-02-28T17:17:47;14.90;;;9.53;;
6519;SDS011;3293;51.690;5.982;2024-02-28T17:22:47;13.60;;;9.20;;
6519;SDS011;3293;51.690;5.982;2024-02-28T17:27:47;16.40;;;10.03;;
6519;SDS011;3293;51.690;5.982;2024-02-28T17:32:47;13.60;;;9.97;;
6519;SDS011;3293;51.690;5.982;2024-02-28T17:37:48;11.83;;;8.40;;
6519;SDS011;3293;51.690;5.982;2024-02-28T17:42:48;15.20;;;9.93;;
6519;SDS011;3293;51.690;5.982;2024-02-28T17:47:47;19.17;;;13.33;;
6519;SDS011;3293;51.690;5.982;2024-02-28T17:52:47;19.80;;;12.73;;
6519;SDS011;3293;51.690;5.982;2024-02-28T17:57:47;15.73;;;10.60;;
6519;SDS011;3293;51.690;5.982;2024-02-28T18:02:49;14.47;;;9.27;;
6519;SDS011;3293;51.690;5.982;2024-02-28T18:07:49;15.90;;;9.67;;
6519;SDS011;3293;51.690;5.982;2024-02-28T18:12:52;15.63;;;9.57;;
6519;SDS011;3293;51.690;5.982;2024-02-28T18:17:51;16.33;;;9.90;;
6519;SDS011;3293;51.690;5.982;2024-02-28T18:22:51;17.17;;;10.77;;
6519;SDS011;3293;51.690;5.982;2024-02-28T18:27:51;11.73;;;8.63;;
6519;SDS011;3293;51.690;5.982;2024-02-28T18:32:51;11.57;;;9.00;;
6519;SDS011;3293;51.690;5.982;2024-02-28T18:37:51;14.20;;;9.17;;
6519;SDS011;3293;51.690;5.982;2024-02-28T18:42:52;13.13;;;8.03;;
6519;SDS011;3293;51.690;5.982;2024-02-28T18:47:52;11.50;;;8.33;;
6519;SDS011;3293;51.690;5.982;2024-02-28T18:52:52;12.53;;;7.53;;
6519;SDS011;3293;51.690;5.982;2024-02-28T18:57:52;11.50;;;8.43;;
6519;SDS011;3293;51.690;5.982;2024-02-28T19:02:53;11.40;;;7.63;;
6519;SDS011;3293;51.690;5.982;2024-02-28T19:07:55;10.60;;;7.63;;
6519;SDS011;3293;51.690;5.982;2024-02-28T19:12:55;10.67;;;7.87;;
6519;SDS011;3293;51.690;5.982;2024-02-28T19:17:55;9.83;;;7.80;;
6519;SDS011;3293;51.690;5.982;2024-02-28T19:22:55;10.50;;;7.33;;
6519;SDS011;3293;51.690;5.982;2024-02-28T19:27:55;12.93;;;7.37;;
6519;SDS011;3293;51.690;5.982;2024-02-28T19:32:54;11.23;;;7.93;;
6519;SDS011;3293;51.690;5.982;2024-02-28T19:37:56;11.50;;;7.03;;
6519;SDS011;3293;51.690;5.982;2024-02-28T19:42:57;9.50;;;7.20;;
6519;SDS011;3293;51.690;5.982;2024-02-28T19:47:57;12.03;;;8.40;;
6519;SDS011;3293;51.690;5.982;2024-02-28T19:52:57;9.97;;;7.27;;
6519;SDS011;3293;51.690;5.982;2024-02-28T19:57:57;11.90;;;8.57;;
6519;SDS011;3293;51.690;5.982;2024-02-28T20:02:57;13.10;;;8.20;;
6519;SDS011;3293;51.690;5.982;2024-02-28T20:07:57;10.87;;;7.87;;
6519;SDS011;3293;51.690;5.982;2024-02-28T20:12:57;16.27;;;8.67;;
6519;SDS011;3293;51.690;5.982;2024-02-28T20:17:57;11.00;;;8.07;;
6519;SDS011;3293;51.690;5.982;2024-02-28T20:22:56;11.37;;;7.93;;
6519;SDS011;3293;51.690;5.982;2024-02-28T20:27:57;14.07;;;7.83;;
6519;SDS011;3293;51.690;5.982;2024-02-28T20:32:57;11.83;;;7.87;;
6519;SDS011;3293;51.690;5.982;2024-02-28T20:37:57;14.43;;;8.47;;
6519;SDS011;3293;51.690;5.982;2024-02-28T20:42:57;14.30;;;9.03;;
6519;SDS011;3293;51.690;5.982;2024-02-28T20:47:57;13.53;;;9.40;;
6519;SDS011;3293;51.690;5.982;2024-02-28T20:52:57;16.63;;;9.97;;
6519;SDS011;3293;51.690;5.982;2024-02-28T20:57:57;13.07;;;9.83;;
6519;SDS011;3293;51.690;5.982;2024-02-28T21:02:57;18.63;;;10.93;;
6519;SDS011;3293;51.690;5.982;2024-02-28T21:07:57;15.23;;;11.13;;
6519;SDS011;3293;51.690;5.982;2024-02-28T21:12:57;14.67;;;10.27;;
6519;SDS011;3293;51.690;5.982;2024-02-28T21:17:57;12.23;;;9.40;;
6519;SDS011;3293;51.690;5.982;2024-02-28T21:22:57;15.20;;;10.57;;
6519;SDS011;3293;51.690;5.982;2024-02-28T21:27:57;18.60;;;11.83;;
6519;SDS011;3293;51.690;5.982;2024-02-28T21:32:57;16.83;;;11.50;;
6519;SDS011;3293;51.690;5.982;2024-02-28T21:37:57;17.90;;;11.93;;
6519;SDS011;3293;51.690;5.982;2024-02-28T21:42:57;19.07;;;11.90;;
6519;SDS011;3293;51.690;5.982;2024-02-28T21:47:57;19.80;;;12.43;;
6519;SDS011;3293;51.690;5.982;2024-02-28T21:52:57;21.33;;;11.67;;
6519;SDS011;3293;51.690;5.982;2024-02-28T21:57:57;20.67;;;12.83;;
6519;SDS011;3293;51.690;5.982;2024-02-28T22:02:58;17.37;;;12.17;;
6519;SDS011;3293;51.690;5.982;2024-02-28T22:07:58;16.60;;;11.53;;
6519;SDS011;3293;51.690;5.982;2024-02-28T22:12:58;18.63;;;11.70;;
6519;SDS011;3293;51.690;5.982;2024-02-28T22:17:58;20.77;;;11.50;;
6519;SDS011;3293;51.690;5.982;2024-02-28T22:22:58;17.80;;;12.20;;
6519;SDS011;3293;51.690;5.982;2024-02-28T22:27:58;15.17;;;11.07;;
6519;SDS011;3293;51.690;5.982;2024-02-28T22:32:57;18.30;;;12.03;;
6519;SDS011;3293;51.690;5.982;2024-02-28T22:37:57;16.33;;;11.17;;
6519;SDS011;3293;51.690;5.982;2024-02-28T22:42:57;18.10;;;12.23;;
6519;SDS011;3293;51.690;5.982;2024-02-28T22:47:57;15.17;;;10.97;;
6519;SDS011;3293;51.690;5.982;2024-02-28T22:52:57;21.77;;;12.53;;
6519;SDS011;3293;51.690;5.982;2024-02-28T22:57:57;14.83;;;11.10;;
6519;SDS011;3293;51.690;5.982;2024-02-28T23:02:57;13.93;;;10.57;;
6519;SDS011;3293;51.690;5.982;2024-02-28T23:08:00;15.93;;;10.93;;
6519;SDS011;3293;51.690;5.982;2024-02-28T23:13:01;16.30;;;9.97;;
6519;SDS011;3293;51.690;5.982;2024-02-28T23:18:01;15.93;;;10.30;;
6519;SDS011;3293;51.690;5.982;2024-02-28T23:23:03;13.90;;;9.30;;
6519;SDS011;3293;51.690;5.982;2024-02-28T23:28:04;17.93;;;9.57;;
6519;SDS011;3293;51.690;5.982;2024-02-28T23:33:04;12.17;;;8.37;;
6519;SDS011;3293;51.690;5.982;2024-02-28T23:38:05;16.77;;;9.10;;
6519;SDS011;3293;51.690;5.982;2024-02-28T23:43:05;11.67;;;8.87;;
6519;SDS011;3293;51.690;5.982;2024-02-28T23:48:05;12.30;;;8.17;;
6519;SDS011;3293;51.690;5.982;2024-02-28T23:53:05;11.90;;;8.60;;
6519;SDS011;3293;51.690;5.982;2024-02-28T23:58:06;12.10;;;8.43;;
